createdAt,value
2023-01-20T00:02:23.532Z,99175.55
2023-01-20T00:04:50.164Z,99182.59
2023-01-20T00:07:16.801Z,99183.81
2023-01-20T02:12:21.614Z,99227.74
2023-01-20T02:14:50.825Z,99217.55
2023-01-20T02:17:33.010Z,99210.69
2023-01-20T02:20:08.073Z,99215.01
2023-01-20T02:22:34.842Z,99216.84
2023-01-20T02:25:04.632Z,99214.00
2023-01-20T02:27:44.573Z,99224.48
2023-01-20T02:30:42.762Z,99230.72
2023-01-20T02:33:42.088Z,99227.73
2023-01-20T02:36:10.439Z,99231.05
2023-01-20T02:38:59.101Z,99232.55
2023-01-20T02:41:32.260Z,99241.79
2023-01-20T02:44:08.290Z,99246.33
2023-01-20T02:46:45.875Z,99244.98
2023-01-20T02:49:51.207Z,99245.48
2023-01-20T02:52:24.224Z,99248.09
2023-01-20T02:54:53.400Z,99252.39
2023-01-20T02:57:24.650Z,99266.02
2023-01-20T02:59:53.557Z,99264.73
2023-01-20T03:02:21.480Z,99273.85
2023-01-20T03:04:51.841Z,99273.25
2023-01-20T03:07:20.195Z,99269.56
2023-01-20T03:09:48.621Z,99265.52
2023-01-20T03:12:22.462Z,99264.64
2023-01-20T03:14:52.066Z,99272.88
2023-01-20T03:17:20.005Z,99276.98
2023-01-20T03:19:47.033Z,99276.70
2023-01-20T03:22:13.814Z,99273.74
2023-01-20T03:24:40.902Z,99271.29
2023-01-20T03:27:07.853Z,99278.97
2023-01-20T03:29:34.807Z,99282.13
2023-01-20T03:32:02.157Z,99279.30
2023-01-20T03:34:31.183Z,99274.53
2023-01-20T03:36:58.323Z,99269.83
2023-01-20T03:39:25.248Z,99274.04
2023-01-20T03:42:15.356Z,99283.33
2023-01-20T03:44:45.223Z,99297.54
2023-01-20T03:47:30.525Z,99304.09
2023-01-20T03:50:06.792Z,99294.70
2023-01-20T03:52:47.509Z,99287.34
2023-01-20T03:55:23.184Z,99290.25
2023-01-20T03:58:05.297Z,99303.48
2023-01-20T04:00:34.910Z,99305.05
2023-01-20T04:03:03.620Z,99291.24
2023-01-20T04:05:30.500Z,99288.30
2023-01-20T04:07:57.934Z,99303.17
2023-01-20T04:10:24.763Z,99312.27
2023-01-20T04:12:51.709Z,99315.09
2023-01-20T04:15:18.873Z,99321.31
2023-01-20T04:17:45.665Z,99328.63
2023-01-20T04:20:12.568Z,99320.33
2023-01-20T04:22:44.172Z,99325.06
2023-01-20T04:25:20.421Z,99328.55
2023-01-20T04:27:47.231Z,99338.23
2023-01-20T04:30:14.776Z,99332.14
2023-01-20T04:32:41.733Z,99329.29
2023-01-20T04:35:12.919Z,99338.78
2023-01-20T04:37:39.904Z,99343.20
2023-01-20T04:40:07.691Z,99346.77
2023-01-20T04:42:34.619Z,99354.25
2023-01-20T04:45:01.431Z,99356.56
2023-01-20T04:47:34.578Z,99362.24
2023-01-20T04:50:01.519Z,99367.03
2023-01-20T04:52:28.307Z,99368.66
2023-01-20T04:54:55.100Z,99371.13
2023-01-20T04:57:21.904Z,99374.13
2023-01-20T04:59:50.120Z,99373.77
2023-01-20T05:02:17.056Z,99372.70
2023-01-20T05:04:45.278Z,99376.59
2023-01-20T05:07:12.192Z,99376.80
2023-01-20T05:09:38.979Z,99377.33
2023-01-20T05:12:05.968Z,99382.98
2023-01-20T05:14:32.816Z,99387.98
2023-01-20T05:16:59.604Z,99389.88
2023-01-20T05:19:26.496Z,99393.26
2023-01-20T05:21:53.300Z,99400.20
2023-01-20T05:24:20.316Z,99402.48
2023-01-20T05:26:47.249Z,99402.26
2023-01-20T05:29:14.116Z,99403.46
2023-01-20T05:31:43.650Z,99407.84
2023-01-20T05:34:11.041Z,99406.66
2023-01-20T05:36:37.930Z,99409.96
2023-01-20T05:39:04.836Z,99418.98
2023-01-20T05:41:31.663Z,99420.40
2023-01-20T05:43:58.557Z,99426.42
2023-01-20T05:46:25.399Z,99430.13
2023-01-20T05:48:52.233Z,99426.73
2023-01-20T05:51:19.069Z,99425.21
2023-01-20T05:53:46.029Z,99425.46
2023-01-20T05:56:16.199Z,99426.45
2023-01-20T05:58:43.256Z,99420.87
2023-01-20T06:01:12.582Z,99421.70
2023-01-20T06:03:39.620Z,99417.28
2023-01-20T06:06:08.397Z,99414.39
2023-01-20T06:08:35.816Z,99421.09
2023-01-20T06:11:02.788Z,99426.00
2023-01-20T06:13:29.591Z,99433.47
2023-01-20T06:15:56.954Z,99438.45
2023-01-20T06:18:24.391Z,99438.18
2023-01-20T06:20:51.326Z,99443.82
2023-01-20T06:23:18.170Z,99452.32
2023-01-20T06:25:45.037Z,99447.84
2023-01-20T06:28:11.831Z,99454.42
2023-01-20T06:30:38.723Z,99453.14
2023-01-20T06:33:10.757Z,99451.78
2023-01-20T06:35:38.229Z,99444.05
2023-01-20T06:38:05.037Z,99444.60
2023-01-20T06:40:31.959Z,99446.45
2023-01-20T06:42:59.075Z,99447.53
2023-01-20T06:45:25.931Z,99457.89
2023-01-20T06:47:52.740Z,99459.02
2023-01-20T06:50:19.648Z,99465.73
2023-01-20T06:52:46.440Z,99471.98
2023-01-20T06:55:13.558Z,99478.70
2023-01-20T06:57:40.660Z,99475.81
2023-01-20T07:00:08.405Z,99481.04
2023-01-20T07:02:35.374Z,99477.66
2023-01-20T07:05:02.597Z,99479.28
2023-01-20T07:07:29.399Z,99481.41
2023-01-20T07:09:56.231Z,99485.20
2023-01-20T07:12:23.102Z,99492.79
2023-01-20T07:14:49.899Z,99497.30
2023-01-20T07:17:16.812Z,99493.14
2023-01-20T07:19:43.701Z,99495.67
2023-01-20T07:22:10.532Z,99495.75
2023-01-20T07:24:37.468Z,99497.57
2023-01-20T07:27:04.329Z,99501.95
2023-01-20T07:29:31.159Z,99504.70
2023-01-20T07:31:58.047Z,99492.44
2023-01-20T07:34:25.067Z,99495.72
2023-01-20T07:36:53.573Z,99498.14
2023-01-20T07:39:24.300Z,99502.82
2023-01-20T07:41:51.855Z,99504.86
2023-01-20T07:44:19.491Z,99497.23
2023-01-20T10:23:57.425Z,99563.48
2023-01-20T10:26:37.678Z,99553.20
2023-01-20T10:29:06.803Z,99550.98
2023-01-20T10:31:44.839Z,99552.58
2023-01-20T10:34:15.233Z,99547.61
2023-01-20T10:36:43.585Z,99545.77
2023-01-20T10:39:41.583Z,99545.20
2023-01-20T10:42:12.969Z,99540.67
2023-01-20T10:44:39.615Z,99541.81
2023-01-20T10:47:22.418Z,99540.15
2023-01-20T10:49:51.918Z,99540.86
2023-01-20T10:52:43.881Z,99543.41
2023-01-20T10:55:41.818Z,99547.25
2023-01-20T10:58:13.837Z,99549.57
2023-01-20T11:00:40.974Z,99552.54
2023-01-20T11:03:11.498Z,99549.68
2023-01-20T11:05:40.583Z,99546.84
2023-01-20T11:08:15.218Z,99546.13
2023-01-20T11:10:41.932Z,99550.52
2023-01-20T11:13:09.749Z,99551.71
2023-01-20T11:15:43.991Z,99548.66
2023-01-20T11:18:13.387Z,99550.80
2023-01-20T11:21:04.498Z,99554.56
2023-01-20T11:23:36.806Z,99552.16
2023-01-20T11:26:10.389Z,99555.30
2023-01-20T11:28:47.898Z,99553.76
2023-01-20T11:31:15.790Z,99550.67
2023-01-20T11:34:00.403Z,99546.27
2023-01-20T11:36:26.887Z,99547.09
2023-01-20T11:38:55.480Z,99548.27
2023-01-20T11:41:23.787Z,99552.04
2023-01-20T11:43:52.665Z,99550.16
2023-01-20T11:46:26.729Z,99549.52
2023-01-20T11:49:16.075Z,99555.34
2023-01-20T11:51:56.676Z,99562.41
2023-01-20T11:54:27.527Z,99564.86
2023-01-20T11:57:00.910Z,99569.20
2023-01-20T11:59:29.073Z,99576.44
2023-01-20T12:02:20.340Z,99571.72
2023-01-20T12:05:12.256Z,99572.59
2023-01-20T12:07:42.551Z,99567.66
2023-01-20T12:10:22.114Z,99565.22
2023-01-20T12:13:01.043Z,99567.02
2023-01-20T12:15:33.101Z,99567.16
2023-01-20T12:18:09.609Z,99575.13
2023-01-20T12:20:53.904Z,99573.34
2023-01-20T12:23:45.161Z,99573.29
2023-01-20T12:26:18.759Z,99579.79
2023-01-20T12:29:10.731Z,99582.98
2023-01-20T12:31:37.439Z,99586.54
2023-01-20T12:34:06.287Z,99587.08
2023-01-20T12:36:56.283Z,99584.71
2023-01-20T12:39:38.391Z,99583.25
2023-01-20T12:42:35.941Z,99585.92
2023-01-20T12:45:24.996Z,99588.58
2023-01-20T12:48:09.572Z,99586.92
2023-01-20T12:51:16.415Z,99587.41
2023-01-20T12:53:43.041Z,99586.53
2023-01-20T12:56:15.919Z,99588.29
2023-01-20T12:59:00.738Z,99585.83
2023-01-20T13:02:01.759Z,99585.20
2023-01-20T13:04:47.266Z,99584.33
2023-01-20T13:07:14.012Z,99581.40
2023-01-20T13:09:44.451Z,99581.50
2023-01-20T13:12:32.925Z,99585.98
2023-01-20T13:15:20.965Z,99589.89
2023-01-20T13:18:12.787Z,99587.02
2023-01-20T13:20:40.532Z,99588.31
2023-01-20T13:23:10.351Z,99588.11
2023-01-20T13:25:37.082Z,99589.41
2023-01-20T13:28:04.118Z,99590.77
2023-01-20T13:30:53.408Z,99591.33
2023-01-20T13:33:37.488Z,99585.14
2023-01-20T13:36:16.659Z,99592.16
2023-01-20T13:38:44.348Z,99595.49
2023-01-20T13:41:11.135Z,99592.78
2023-01-20T13:43:44.078Z,99593.39
2023-01-20T13:46:10.958Z,99592.25
2023-01-20T13:48:38.188Z,99588.14
2023-01-20T13:51:27.079Z,99586.60
2023-01-20T13:54:33.467Z,99580.84
2023-01-20T13:57:22.791Z,99584.95
2023-01-20T13:59:50.239Z,99579.73
2023-01-20T14:02:27.056Z,99583.79
2023-01-20T14:04:58.105Z,99579.45
2023-01-20T14:07:26.076Z,99585.02
2023-01-20T14:09:56.324Z,99586.20
2023-01-20T14:12:22.931Z,99584.73
2023-01-20T14:14:51.577Z,99583.70
2023-01-20T14:17:26.833Z,99579.77
2023-01-20T14:19:54.664Z,99580.55
2023-01-20T14:22:26.421Z,99581.63
2023-01-20T14:24:56.675Z,99576.30
2023-01-20T14:27:32.884Z,99578.80
2023-01-20T14:30:20.016Z,99578.14
2023-01-20T14:32:46.922Z,99577.83
2023-01-20T14:35:28.327Z,99578.99
2023-01-20T14:37:55.024Z,99580.13
2023-01-20T14:40:32.158Z,99583.68
2023-01-20T14:43:02.949Z,99581.65
2023-01-20T14:45:31.742Z,99591.23
2023-01-20T14:47:59.452Z,99588.82
2023-01-20T14:50:26.393Z,99592.92
2023-01-20T14:52:53.043Z,99586.59
2023-01-20T14:55:40.244Z,99592.92
2023-01-20T14:58:17.052Z,99592.02
2023-01-20T15:00:50.297Z,99596.93
2023-01-20T15:03:23.285Z,99598.19
2023-01-20T15:06:00.576Z,99599.35
2023-01-20T15:09:04.438Z,99598.20
2023-01-20T15:11:33.020Z,99590.17
2023-01-20T15:14:00.124Z,99593.71
2023-01-20T15:16:31.082Z,99594.23
2023-01-20T15:19:13.106Z,99589.34
2023-01-20T15:21:45.340Z,99586.82
2023-01-20T15:24:46.774Z,99590.38
2023-01-20T15:27:23.729Z,99596.08
2023-01-20T15:30:13.054Z,99602.35
2023-01-20T15:32:40.777Z,99604.01
2023-01-20T15:35:12.080Z,99611.48
2023-01-20T15:37:40.201Z,99606.40
2023-01-20T18:59:58.206Z,99727.77
2023-01-20T19:02:25.174Z,99713.55
2023-01-20T19:04:52.201Z,99709.29
2023-01-20T19:07:20.375Z,99713.77
2023-01-20T19:09:47.059Z,99720.48
2023-01-20T19:12:13.858Z,99718.77
2023-01-20T19:14:40.439Z,99721.16
2023-01-20T19:17:07.774Z,99719.53
2023-01-20T19:19:34.904Z,99722.73
2023-01-20T19:22:01.747Z,99725.33
2023-01-20T19:24:29.766Z,99722.13
2023-01-20T19:26:57.686Z,99730.18
2023-01-20T19:29:28.249Z,99729.24
2023-01-20T19:31:56.752Z,99726.23
2023-01-20T19:34:25.403Z,99732.30
2023-01-20T19:36:52.748Z,99735.52
2023-01-20T19:39:19.999Z,99739.97
2023-01-20T19:41:46.698Z,99740.36
2023-01-20T19:44:13.407Z,99736.89
2023-01-20T19:46:41.280Z,99739.84
2023-01-20T19:49:34.523Z,99738.08
2023-01-20T19:52:01.315Z,99742.55
2023-01-20T19:54:30.299Z,99746.37
2023-01-20T19:56:57.606Z,99746.39
2023-01-20T19:59:24.505Z,99744.11
2023-01-20T20:01:52.025Z,99747.60
2023-01-20T20:04:20.074Z,99755.70
2023-01-20T20:06:48.656Z,99753.39
2023-01-20T20:09:18.786Z,99752.81
2023-01-20T20:11:46.659Z,99752.06
2023-01-20T20:14:16.219Z,99752.41
2023-01-20T20:16:42.807Z,99754.48
2023-01-20T20:19:12.301Z,99754.61
2023-01-20T20:21:39.562Z,99758.07
2023-01-20T20:24:06.498Z,99767.36
2023-01-20T20:26:35.146Z,99774.01
2023-01-20T20:29:03.051Z,99776.17
2023-01-20T20:31:31.163Z,99781.27
2023-01-20T20:33:58.597Z,99783.35
2023-01-20T20:36:27.998Z,99784.88
2023-01-20T20:38:58.027Z,99789.91
2023-01-20T20:41:29.980Z,99789.74
2023-01-20T20:43:57.839Z,99794.38
2023-01-20T20:46:25.930Z,99797.29
2023-01-20T20:48:54.363Z,99802.52
2023-01-20T20:51:23.580Z,99804.54
2023-01-20T20:53:57.857Z,99803.39
2023-01-20T20:56:27.627Z,99805.05
2023-01-20T20:59:01.519Z,99805.10
2023-01-20T21:01:32.509Z,99812.72
2023-01-20T21:03:59.897Z,99822.62
2023-01-20T21:06:27.206Z,99827.22
2023-01-20T21:08:54.602Z,99833.05
2023-01-20T21:11:21.899Z,99834.84
2023-01-20T21:13:49.161Z,99833.96
2023-01-20T21:16:20.114Z,99832.04
2023-01-20T21:18:47.168Z,99833.13
2023-01-20T21:21:16.477Z,99831.41
2023-01-20T21:23:47.494Z,99829.84
2023-01-20T21:26:15.151Z,99832.86
2023-01-20T21:28:45.029Z,99832.34
2023-01-20T21:31:13.287Z,99829.91
2023-01-20T21:33:41.741Z,99831.34
2023-01-20T21:36:11.567Z,99831.38
2023-01-20T21:38:40.918Z,99836.34
2023-01-20T21:41:09.599Z,99828.08
2023-01-20T21:43:57.268Z,99831.08
2023-01-20T21:46:24.266Z,99833.91
2023-01-20T21:49:10.105Z,99835.32
2023-01-20T21:51:55.687Z,99828.83
2023-01-20T21:54:26.237Z,99824.45
2023-01-20T21:56:53.057Z,99832.20
2023-01-20T21:59:20.005Z,99828.48
2023-01-20T22:01:46.748Z,99827.08
2023-01-20T22:04:13.697Z,99826.38
2023-01-20T22:06:41.899Z,99827.44
2023-01-20T22:09:08.713Z,99830.80
2023-01-20T22:11:36.051Z,99830.48
2023-01-20T22:14:03.087Z,99831.88
2023-01-20T22:16:31.543Z,99832.92
2023-01-20T22:18:58.713Z,99829.60
2023-01-20T22:21:26.107Z,99834.66
2023-01-20T22:23:55.103Z,99835.02
2023-01-20T22:26:22.253Z,99840.64
2023-01-20T22:28:49.139Z,99836.96
2023-01-20T22:31:23.339Z,99842.95
2023-01-20T22:33:54.467Z,99841.35
2023-01-20T22:36:22.067Z,99839.05
2023-01-20T22:38:50.609Z,99848.22
2023-01-20T22:41:18.250Z,99848.73
2023-01-20T22:43:47.219Z,99843.63
2023-01-20T22:46:18.164Z,99834.47
2023-01-20T22:48:45.075Z,99840.08
2023-01-20T22:51:13.852Z,99843.42
2023-01-20T22:53:41.118Z,99838.83
2023-01-20T22:56:11.316Z,99839.02
2023-01-20T22:58:38.278Z,99842.16
2023-01-20T23:01:07.852Z,99841.81
2023-01-20T23:03:35.346Z,99841.45
2023-01-20T23:06:02.175Z,99840.57
2023-01-20T23:08:29.461Z,99842.33
2023-01-20T23:10:59.592Z,99845.29
2023-01-20T23:13:26.768Z,99844.90
2023-01-20T23:15:53.934Z,99843.11
2023-01-20T23:18:21.183Z,99852.02
2023-01-20T23:20:52.076Z,99847.10
2023-01-20T23:23:19.710Z,99843.41
2023-01-20T23:25:46.656Z,99842.55
2023-01-20T23:28:13.859Z,99848.17
2023-01-20T23:30:40.901Z,99842.00
2023-01-20T23:33:09.451Z,99840.92
2023-01-20T23:35:39.636Z,99846.02
2023-01-20T23:38:06.756Z,99844.59
2023-01-20T23:40:34.673Z,99849.30
2023-01-20T23:43:03.453Z,99849.26
2023-01-20T23:45:30.771Z,99848.02
2023-01-20T23:47:57.641Z,99853.11
2023-01-20T23:50:24.653Z,99854.34
2023-01-20T23:52:51.346Z,99850.30
2023-01-20T23:55:18.214Z,99858.17
2023-01-20T23:57:44.808Z,99871.69
